sensor_id;sensor_type;location;lat;lon;timestamp;pressure;altitude;pressure_sealevel;temperature;humidity
76858;BME280;65830;0.000;0.000;2023-08-01T00:00:02;99224.34;;;23.90;57.81
76858;BME280;65830;0.000;0.000;2023-08-01T00:02:37;99221.06;;;23.88;57.71
76858;BME280;65830;0.000;0.000;2023-08-01T00:05:03;99227.41;;;23.82;57.70
76858;BME280;65830;0.000;0.000;2023-08-01T00:07:28;99223.53;;;23.77;57.48
76858;BME280;65830;0.000;0.000;2023-08-01T00:09:54;99224.81;;;23.75;57.52
76858;BME280;65830;0.000;0.000;2023-08-01T00:12:19;99214.66;;;23.70;56.32
76858;BME280;65830;0.000;0.000;2023-08-01T00:14:45;99217.84;;;23.67;56.33
76858;BME280;65830;0.000;0.000;2023-08-01T00:17:10;99221.03;;;23.64;56.47
76858;BME280;65830;0.000;0.000;2023-08-01T00:19:36;99214.56;;;23.65;56.58
76858;BME280;65830;0.000;0.000;2023-08-01T00:22:01;99206.66;;;23.64;56.30
76858;BME280;65830;0.000;0.000;2023-08-01T00:24:27;99208.66;;;23.68;56.31
76858;BME280;65830;0.000;0.000;2023-08-01T00:26:52;99206.78;;;23.69;55.52
76858;BME280;65830;0.000;0.000;2023-08-01T00:29:20;99201.59;;;23.67;55.44
76858;BME280;65830;0.000;0.000;2023-08-01T00:31:46;99203.81;;;23.70;55.05
76858;BME280;65830;0.000;0.000;2023-08-01T00:34:11;99196.56;;;23.71;55.21
76858;BME280;65830;0.000;0.000;2023-08-01T00:36:37;99202.78;;;23.71;55.09
76858;BME280;65830;0.000;0.000;2023-08-01T00:39:02;99206.06;;;23.73;54.70
76858;BME280;65830;0.000;0.000;2023-08-01T00:41:28;99196.28;;;23.72;54.61
76858;BME280;65830;0.000;0.000;2023-08-01T00:43:53;99197.59;;;23.70;54.46
76858;BME280;65830;0.000;0.000;2023-08-01T00:46:19;99191.94;;;23.71;55.05
76858;BME280;65830;0.000;0.000;2023-08-01T00:48:44;99191.47;;;23.74;55.44
76858;BME280;65830;0.000;0.000;2023-08-01T00:51:11;99189.59;;;23.75;55.12
76858;BME280;65830;0.000;0.000;2023-08-01T00:53:37;99184.88;;;23.70;54.53
76858;BME280;65830;0.000;0.000;2023-08-01T00:56:03;99175.47;;;23.61;54.27
76858;BME280;65830;0.000;0.000;2023-08-01T00:58:28;99173.94;;;23.65;54.62
76858;BME280;65830;0.000;0.000;2023-08-01T01:00:54;99172.03;;;23.66;54.93
76858;BME280;65830;0.000;0.000;2023-08-01T01:03:22;99173.72;;;23.67;54.80
76858;BME280;65830;0.000;0.000;2023-08-01T01:08:33;99168.03;;;23.68;55.01
76858;BME280;65830;0.000;0.000;2023-08-01T01:10:59;99161.56;;;23.69;56.29
76858;BME280;65830;0.000;0.000;2023-08-01T01:13:24;99161.81;;;23.68;54.09
76858;BME280;65830;0.000;0.000;2023-08-01T01:15:50;99159.81;;;23.63;56.00
76858;BME280;65830;0.000;0.000;2023-08-01T01:18:15;99152.16;;;23.60;54.21
76858;BME280;65830;0.000;0.000;2023-08-01T01:20:41;99150.50;;;23.71;54.01
76858;BME280;65830;0.000;0.000;2023-08-01T01:23:06;99147.53;;;23.72;53.34
76858;BME280;65830;0.000;0.000;2023-08-01T01:25:33;99140.94;;;23.68;52.96
76858;BME280;65830;0.000;0.000;2023-08-01T01:28:00;99140.94;;;23.68;53.69
76858;BME280;65830;0.000;0.000;2023-08-01T01:30:27;99132.94;;;23.73;54.86
76858;BME280;65830;0.000;0.000;2023-08-01T01:32:53;99131.06;;;23.74;54.99
76858;BME280;65830;0.000;0.000;2023-08-01T01:35:19;99134.00;;;23.72;56.45
76858;BME280;65830;0.000;0.000;2023-08-01T01:37:45;99132.72;;;23.75;53.57
76858;BME280;65830;0.000;0.000;2023-08-01T01:40:10;99127.03;;;23.76;54.76
76858;BME280;65830;0.000;0.000;2023-08-01T01:42:36;99126.44;;;23.74;53.84
76858;BME280;65830;0.000;0.000;2023-08-01T01:45:02;99127.28;;;23.75;53.97
76858;BME280;65830;0.000;0.000;2023-08-01T01:47:27;99134.50;;;23.69;56.19
76858;BME280;65830;0.000;0.000;2023-08-01T01:49:52;99123.44;;;23.59;54.03
76858;BME280;65830;0.000;0.000;2023-08-01T01:52:18;99126.59;;;23.56;53.92
76858;BME280;65830;0.000;0.000;2023-08-01T01:54:43;99131.91;;;23.51;55.14
76858;BME280;65830;0.000;0.000;2023-08-01T01:57:09;99135.31;;;23.46;55.10
76858;BME280;65830;0.000;0.000;2023-08-01T01:59:34;99140.38;;;23.43;55.62
76858;BME280;65830;0.000;0.000;2023-08-01T02:02:01;99142.16;;;23.37;56.95
76858;BME280;65830;0.000;0.000;2023-08-01T02:04:29;99141.22;;;23.31;55.67
76858;BME280;65830;0.000;0.000;2023-08-01T02:06:55;99141.09;;;23.26;55.57
76858;BME280;65830;0.000;0.000;2023-08-01T02:09:21;99142.03;;;23.20;55.79
76858;BME280;65830;0.000;0.000;2023-08-01T02:11:47;99145.44;;;23.15;57.05
76858;BME280;65830;0.000;0.000;2023-08-01T02:14:13;99145.53;;;23.09;56.01
76858;BME280;65830;0.000;0.000;2023-08-01T02:16:38;99147.28;;;23.03;55.56
76858;BME280;65830;0.000;0.000;2023-08-01T02:19:03;99147.28;;;23.03;56.05
76858;BME280;65830;0.000;0.000;2023-08-01T02:21:32;99153.75;;;23.02;56.74
76858;BME280;65830;0.000;0.000;2023-08-01T02:23:58;99148.34;;;23.02;56.38
76858;BME280;65830;0.000;0.000;2023-08-01T02:26:23;99148.44;;;22.95;55.71
76858;BME280;65830;0.000;0.000;2023-08-01T02:28:50;99157.81;;;22.93;56.26
76858;BME280;65830;0.000;0.000;2023-08-01T02:31:15;99152.53;;;22.86;55.65
76858;BME280;65830;0.000;0.000;2023-08-01T02:33:42;99151.94;;;22.84;55.97
76858;BME280;65830;0.000;0.000;2023-08-01T02:36:07;99159.78;;;22.74;56.12
76858;BME280;65830;0.000;0.000;2023-08-01T02:38:33;99144.00;;;22.71;56.12
76858;BME280;65830;0.000;0.000;2023-08-01T02:40:58;99160.22;;;22.71;56.16
76858;BME280;65830;0.000;0.000;2023-08-01T02:43:24;99163.63;;;22.66;56.57
76858;BME280;65830;0.000;0.000;2023-08-01T02:45:49;99156.94;;;22.69;56.26
76858;BME280;65830;0.000;0.000;2023-08-01T02:48:15;99156.22;;;22.73;56.51
76858;BME280;65830;0.000;0.000;2023-08-01T02:50:41;99163.09;;;22.76;56.38
76858;BME280;65830;0.000;0.000;2023-08-01T02:53:06;99155.56;;;22.78;56.28
76858;BME280;65830;0.000;0.000;2023-08-01T02:55:32;99168.28;;;22.77;56.74
76858;BME280;65830;0.000;0.000;2023-08-01T02:57:57;99175.91;;;22.80;56.68
76858;BME280;65830;0.000;0.000;2023-08-01T03:00:23;99181.69;;;22.84;57.24
76858;BME280;65830;0.000;0.000;2023-08-01T03:02:48;99187.69;;;22.86;56.48
76858;BME280;65830;0.000;0.000;2023-08-01T03:05:14;99181.47;;;22.86;57.33
76858;BME280;65830;0.000;0.000;2023-08-01T03:07:39;99183.53;;;22.72;58.31
76858;BME280;65830;0.000;0.000;2023-08-01T03:10:05;99189.00;;;22.65;58.50
76858;BME280;65830;0.000;0.000;2023-08-01T03:12:32;99191.00;;;22.58;59.48
76858;BME280;65830;0.000;0.000;2023-08-01T03:14:57;99193.00;;;22.63;59.57
76858;BME280;65830;0.000;0.000;2023-08-01T03:17:23;99197.28;;;22.70;60.02
76858;BME280;65830;0.000;0.000;2023-08-01T03:19:48;99193.44;;;22.78;60.93
76858;BME280;65830;0.000;0.000;2023-08-01T03:22:14;99197.75;;;22.79;61.15
76858;BME280;65830;0.000;0.000;2023-08-01T03:24:39;99196.13;;;22.78;60.66
76858;BME280;65830;0.000;0.000;2023-08-01T03:27:05;99201.63;;;22.71;60.21
76858;BME280;65830;0.000;0.000;2023-08-01T03:29:30;99197.22;;;22.58;60.61
76858;BME280;65830;0.000;0.000;2023-08-01T03:31:56;99201.56;;;22.59;60.21
76858;BME280;65830;0.000;0.000;2023-08-01T03:34:21;99207.16;;;22.46;59.66
76858;BME280;65830;0.000;0.000;2023-08-01T03:36:47;99203.88;;;22.44;58.70
76858;BME280;65830;0.000;0.000;2023-08-01T03:39:12;99209.28;;;22.44;58.46
76858;BME280;65830;0.000;0.000;2023-08-01T03:41:38;99204.47;;;22.46;59.15
76858;BME280;65830;0.000;0.000;2023-08-01T03:44:03;99207.75;;;22.48;58.51
76858;BME280;65830;0.000;0.000;2023-08-01T03:46:29;99209.03;;;22.46;58.71
76858;BME280;65830;0.000;0.000;2023-08-01T03:48:55;99211.06;;;22.50;58.12
76858;BME280;65830;0.000;0.000;2023-08-01T03:51:20;99203.56;;;22.52;57.67
76858;BME280;65830;0.000;0.000;2023-08-01T03:53:46;99209.66;;;22.48;57.89
76858;BME280;65830;0.000;0.000;2023-08-01T03:56:11;99215.94;;;22.41;57.94
76858;BME280;65830;0.000;0.000;2023-08-01T03:58:37;99207.59;;;22.43;58.16
76858;BME280;65830;0.000;0.000;2023-08-01T04:01:02;99204.47;;;22.46;58.92
76858;BME280;65830;0.000;0.000;2023-08-01T04:03:28;99208.09;;;22.40;58.20
76858;BME280;65830;0.000;0.000;2023-08-01T04:05:53;99214.31;;;22.40;59.08
76858;BME280;65830;0.000;0.000;2023-08-01T04:08:19;99210.31;;;22.43;58.69
76858;BME280;65830;0.000;0.000;2023-08-01T04:10:45;99214.44;;;22.46;59.26
76858;BME280;65830;0.000;0.000;2023-08-01T04:13:10;99210.16;;;22.56;58.90
76858;BME280;65830;0.000;0.000;2023-08-01T04:15:35;99207.88;;;22.53;58.24
76858;BME280;65830;0.000;0.000;2023-08-01T04:18:01;99212.94;;;22.50;58.88
76858;BME280;65830;0.000;0.000;2023-08-01T04:20:26;99210.59;;;22.53;59.24
76858;BME280;65830;0.000;0.000;2023-08-01T04:22:52;99208.25;;;22.57;59.85
76858;BME280;65830;0.000;0.000;2023-08-01T04:25:17;99214.50;;;22.57;59.87
76858;BME280;65830;0.000;0.000;2023-08-01T04:27:43;99206.84;;;22.54;58.46
76858;BME280;65830;0.000;0.000;2023-08-01T04:30:08;99208.25;;;22.57;58.98
76858;BME280;65830;0.000;0.000;2023-08-01T04:32:34;99211.94;;;22.63;59.08
76858;BME280;65830;0.000;0.000;2023-08-01T04:35:00;99221.03;;;22.68;58.87
76858;BME280;65830;0.000;0.000;2023-08-01T04:37:25;99225.63;;;22.68;58.80
76858;BME280;65830;0.000;0.000;2023-08-01T04:39:51;99228.53;;;22.66;58.57
76858;BME280;65830;0.000;0.000;2023-08-01T04:42:16;99228.91;;;22.70;58.00
76858;BME280;65830;0.000;0.000;2023-08-01T04:44:42;99226.81;;;22.72;58.97
76858;BME280;65830;0.000;0.000;2023-08-01T04:47:07;99230.47;;;22.77;58.18
76858;BME280;65830;0.000;0.000;2023-08-01T04:49:33;99225.41;;;22.81;57.70
76858;BME280;65830;0.000;0.000;2023-08-01T04:51:58;99218.72;;;22.84;57.26
76858;BME280;65830;0.000;0.000;2023-08-01T04:54:24;99220.16;;;22.86;57.44
76858;BME280;65830;0.000;0.000;2023-08-01T04:56:49;99219.81;;;22.94;57.45
76858;BME280;65830;0.000;0.000;2023-08-01T04:59:15;99226.28;;;22.93;57.18
76858;BME280;65830;0.000;0.000;2023-08-01T05:01:40;99221.47;;;22.95;56.68
76858;BME280;65830;0.000;0.000;2023-08-01T05:04:05;99225.22;;;22.94;56.38
76858;BME280;65830;0.000;0.000;2023-08-01T05:06:31;99222.53;;;22.94;55.87
76858;BME280;65830;0.000;0.000;2023-08-01T05:08:57;99224.53;;;22.99;55.66
76858;BME280;65830;0.000;0.000;2023-08-01T05:11:22;99228.00;;;23.06;56.41
76858;BME280;65830;0.000;0.000;2023-08-01T05:13:48;99221.88;;;23.11;55.70
76858;BME280;65830;0.000;0.000;2023-08-01T05:16:13;99221.28;;;23.09;54.85
76858;BME280;65830;0.000;0.000;2023-08-01T05:18:39;99227.28;;;23.11;55.47
76858;BME280;65830;0.000;0.000;2023-08-01T05:21:04;99232.84;;;23.16;55.23
76858;BME280;65830;0.000;0.000;2023-08-01T05:23:30;99236.59;;;23.15;55.05
76858;BME280;65830;0.000;0.000;2023-08-01T05:25:55;99226.84;;;23.14;55.42
76858;BME280;65830;0.000;0.000;2023-08-01T05:28:21;99235.41;;;23.11;55.06
76858;BME280;65830;0.000;0.000;2023-08-01T05:30:46;99239.09;;;23.16;55.01
76858;BME280;65830;0.000;0.000;2023-08-01T05:33:12;99244.72;;;23.15;55.12
76858;BME280;65830;0.000;0.000;2023-08-01T05:35:37;99243.81;;;23.21;55.05
76858;BME280;65830;0.000;0.000;2023-08-01T05:38:03;99239.81;;;23.24;56.05
76858;BME280;65830;0.000;0.000;2023-08-01T05:40:28;99239.81;;;23.24;56.31
76858;BME280;65830;0.000;0.000;2023-08-01T05:42:53;99237.00;;;23.30;56.29
76858;BME280;65830;0.000;0.000;2023-08-01T05:45:19;99236.78;;;23.32;56.55
76858;BME280;65830;0.000;0.000;2023-08-01T05:47:44;99235.59;;;23.39;56.01
76858;BME280;65830;0.000;0.000;2023-08-01T05:50:10;99236.78;;;23.44;55.57
76858;BME280;65830;0.000;0.000;2023-08-01T05:52:35;99238.09;;;23.41;55.42
76858;BME280;65830;0.000;0.000;2023-08-01T05:55:01;99227.16;;;23.48;55.83
76858;BME280;65830;0.000;0.000;2023-08-01T05:57:27;99238.34;;;23.63;54.93
76858;BME280;65830;0.000;0.000;2023-08-01T05:59:52;99241.06;;;23.63;54.44
76858;BME280;65830;0.000;0.000;2023-08-01T06:02:18;99239.50;;;23.55;54.06
76858;BME280;65830;0.000;0.000;2023-08-01T06:04:44;99243.25;;;23.54;54.45
76858;BME280;65830;0.000;0.000;2023-08-01T06:07:09;99242.09;;;23.62;53.97
76858;BME280;65830;0.000;0.000;2023-08-01T06:09:34;99246.13;;;23.71;54.01
76858;BME280;65830;0.000;0.000;2023-08-01T06:12:00;99238.25;;;23.82;53.30
76858;BME280;65830;0.000;0.000;2023-08-01T06:14:25;99236.72;;;23.86;52.45
76858;BME280;65830;0.000;0.000;2023-08-01T06:16:51;99238.97;;;24.01;51.17
76858;BME280;65830;0.000;0.000;2023-08-01T06:19:16;99230.25;;;23.98;51.58
76858;BME280;65830;0.000;0.000;2023-08-01T06:21:42;99236.94;;;24.08;51.93
76858;BME280;65830;0.000;0.000;2023-08-01T06:24:07;99222.09;;;24.10;51.38
76858;BME280;65830;0.000;0.000;2023-08-01T06:26:33;99222.31;;;24.21;51.90
76858;BME280;65830;0.000;0.000;2023-08-01T06:28:59;99220.44;;;24.21;51.13
76858;BME280;65830;0.000;0.000;2023-08-01T06:31:24;99226.44;;;24.23;50.96
76858;BME280;65830;0.000;0.000;2023-08-01T06:33:50;99218.88;;;24.25;50.40
76858;BME280;65830;0.000;0.000;2023-08-01T06:36:15;99223.94;;;24.33;50.07
76858;BME280;65830;0.000;0.000;2023-08-01T06:38:42;99230.88;;;24.41;49.69
76858;BME280;65830;0.000;0.000;2023-08-01T06:41:08;99229.66;;;24.49;49.67
76858;BME280;65830;0.000;0.000;2023-08-01T06:43:33;99224.13;;;24.55;48.89
76858;BME280;65830;0.000;0.000;2023-08-01T06:45:58;99221.91;;;24.52;50.85
76858;BME280;65830;0.000;0.000;2023-08-01T06:48:24;99225.88;;;24.62;49.76
76858;BME280;65830;0.000;0.000;2023-08-01T06:50:49;99224.09;;;24.67;49.69
76858;BME280;65830;0.000;0.000;2023-08-01T06:53:15;99224.44;;;24.71;49.68
76858;BME280;65830;0.000;0.000;2023-08-01T06:55:41;99216.97;;;24.78;48.79
76858;BME280;65830;0.000;0.000;2023-08-01T06:58:06;99219.31;;;24.86;47.94
76858;BME280;65830;0.000;0.000;2023-08-01T07:00:32;99218.47;;;24.86;48.84
76858;BME280;65830;0.000;0.000;2023-08-01T07:02:57;99215.50;;;24.87;50.30
76858;BME280;65830;0.000;0.000;2023-08-01T07:05:23;99212.91;;;24.92;48.22
76858;BME280;65830;0.000;0.000;2023-08-01T07:07:48;99215.03;;;24.90;47.65
76858;BME280;65830;0.000;0.000;2023-08-01T07:10:14;99212.31;;;24.90;48.08
76858;BME280;65830;0.000;0.000;2023-08-01T07:12:39;99207.31;;;24.99;47.46
76858;BME280;65830;0.000;0.000;2023-08-01T07:15:05;99209.44;;;24.97;47.62
76858;BME280;65830;0.000;0.000;2023-08-01T07:17:31;99209.63;;;25.07;47.42
76858;BME280;65830;0.000;0.000;2023-08-01T07:19:57;99208.97;;;25.17;47.18
76858;BME280;65830;0.000;0.000;2023-08-01T07:22:22;99207.06;;;25.29;46.56
76858;BME280;65830;0.000;0.000;2023-08-01T07:24:52;99210.66;;;25.35;46.22
76858;BME280;65830;0.000;0.000;2023-08-01T07:27:17;99210.00;;;25.45;46.33
76858;BME280;65830;0.000;0.000;2023-08-01T07:29:42;99217.66;;;25.48;46.00
76858;BME280;65830;0.000;0.000;2023-08-01T07:32:08;99208.94;;;25.46;46.40
76858;BME280;65830;0.000;0.000;2023-08-01T07:34:33;99207.84;;;25.47;47.60
76858;BME280;65830;0.000;0.000;2023-08-01T07:36:59;99199.78;;;25.52;46.19
76858;BME280;65830;0.000;0.000;2023-08-01T07:39:24;99200.13;;;25.55;46.10
76858;BME280;65830;0.000;0.000;2023-08-01T07:41:50;99207.84;;;25.64;45.94
76858;BME280;65830;0.000;0.000;2023-08-01T07:44:15;99202.19;;;25.65;45.74
76858;BME280;65830;0.000;0.000;2023-08-01T07:46:40;99196.22;;;25.68;46.00
76858;BME280;65830;0.000;0.000;2023-08-01T07:49:06;99196.66;;;25.77;45.86
76858;BME280;65830;0.000;0.000;2023-08-01T07:51:31;99198.84;;;25.80;45.09
76858;BME280;65830;0.000;0.000;2023-08-01T07:53:59;99192.41;;;25.86;45.07
76858;BME280;65830;0.000;0.000;2023-08-01T07:56:24;99192.00;;;25.94;44.09
76858;BME280;65830;0.000;0.000;2023-08-01T07:58:50;99190.69;;;25.97;44.64
76858;BME280;65830;0.000;0.000;2023-08-01T08:01:15;99191.84;;;26.01;44.21
76858;BME280;65830;0.000;0.000;2023-08-01T08:03:41;99185.84;;;25.99;45.94
76858;BME280;65830;0.000;0.000;2023-08-01T08:06:06;99171.81;;;26.07;44.45
76858;BME280;65830;0.000;0.000;2023-08-01T08:08:32;99177.56;;;26.11;44.29
76858;BME280;65830;0.000;0.000;2023-08-01T08:11:01;99180.91;;;26.18;44.32
76858;BME280;65830;0.000;0.000;2023-08-01T08:13:27;99173.19;;;26.10;43.55
76858;BME280;65830;0.000;0.000;2023-08-01T08:15:55;99167.56;;;26.17;43.85
76858;BME280;65830;0.000;0.000;2023-08-01T08:18:21;99167.94;;;26.25;43.46
76858;BME280;65830;0.000;0.000;2023-08-01T08:20:46;99174.03;;;26.32;44.41
76858;BME280;65830;0.000;0.000;2023-08-01T08:23:12;99178.03;;;26.30;43.70
76858;BME280;65830;0.000;0.000;2023-08-01T08:25:41;99173.13;;;26.27;45.60
76858;BME280;65830;0.000;0.000;2023-08-01T08:28:07;99159.53;;;26.27;44.92
76858;BME280;65830;0.000;0.000;2023-08-01T08:30:32;99152.50;;;26.31;44.06
76858;BME280;65830;0.000;0.000;2023-08-01T08:32:58;99154.13;;;26.32;44.45
76858;BME280;65830;0.000;0.000;2023-08-01T08:35:25;99158.13;;;26.68;44.34
76858;BME280;65830;0.000;0.000;2023-08-01T08:37:51;99145.44;;;26.57;44.25
76858;BME280;65830;0.000;0.000;2023-08-01T08:40:16;99146.50;;;26.78;43.47
76858;BME280;65830;0.000;0.000;2023-08-01T08:42:42;99137.16;;;27.01;44.15
76858;BME280;65830;0.000;0.000;2023-08-01T08:45:08;99138.03;;;27.07;43.98
76858;BME280;65830;0.000;0.000;2023-08-01T08:47:38;99147.31;;;27.11;41.66
76858;BME280;65830;0.000;0.000;2023-08-01T08:50:07;99143.47;;;27.07;42.13
76858;BME280;65830;0.000;0.000;2023-08-01T08:52:33;99145.31;;;26.96;42.61
76858;BME280;65830;0.000;0.000;2023-08-01T08:54:59;99142.03;;;26.94;42.12
76858;BME280;65830;0.000;0.000;2023-08-01T08:57:25;99134.75;;;27.05;42.33
76858;BME280;65830;0.000;0.000;2023-08-01T08:59:51;99128.78;;;27.08;42.07
76858;BME280;65830;0.000;0.000;2023-08-01T09:02:16;99129.91;;;27.12;41.85
76858;BME280;65830;0.000;0.000;2023-08-01T09:04:42;99130.47;;;27.14;42.12
76858;BME280;65830;0.000;0.000;2023-08-01T09:07:09;99123.44;;;27.23;42.21
76858;BME280;65830;0.000;0.000;2023-08-01T09:09:36;99121.19;;;27.10;43.81
76858;BME280;65830;0.000;0.000;2023-08-01T09:12:02;99122.56;;;27.12;41.93
76858;BME280;65830;0.000;0.000;2023-08-01T09:14:27;99125.69;;;27.26;40.68
76858;BME280;65830;0.000;0.000;2023-08-01T09:16:54;99115.34;;;27.28;41.80
76858;BME280;65830;0.000;0.000;2023-08-01T09:19:23;99117.56;;;27.31;41.21
76858;BME280;65830;0.000;0.000;2023-08-01T09:21:50;99115.84;;;27.25;42.01
76858;BME280;65830;0.000;0.000;2023-08-01T09:24:16;99108.44;;;27.21;42.79
76858;BME280;65830;0.000;0.000;2023-08-01T09:26:42;99100.81;;;27.18;43.42
76858;BME280;65830;0.000;0.000;2023-08-01T09:29:08;99093.31;;;27.35;42.56
76858;BME280;65830;0.000;0.000;2023-08-01T09:31:40;99092.81;;;27.38;42.36
76858;BME280;65830;0.000;0.000;2023-08-01T09:34:06;99092.50;;;27.34;42.23
76858;BME280;65830;0.000;0.000;2023-08-01T09:36:42;99094.72;;;27.38;41.53
76858;BME280;65830;0.000;0.000;2023-08-01T09:39:08;99089.81;;;27.40;42.73
76858;BME280;65830;0.000;0.000;2023-08-01T09:41:33;99082.03;;;27.64;40.65
76858;BME280;65830;0.000;0.000;2023-08-01T09:43:59;99085.84;;;27.63;42.81
76858;BME280;65830;0.000;0.000;2023-08-01T09:46:24;99073.63;;;27.70;43.25
76858;BME280;65830;0.000;0.000;2023-08-01T09:48:50;99075.78;;;27.63;44.23
76858;BME280;65830;0.000;0.000;2023-08-01T09:51:16;99070.38;;;27.79;42.86
76858;BME280;65830;0.000;0.000;2023-08-01T09:53:52;99071.41;;;27.62;44.70
76858;BME280;65830;0.000;0.000;2023-08-01T09:56:19;99069.28;;;27.74;40.85
76858;BME280;65830;0.000;0.000;2023-08-01T09:58:46;99064.09;;;27.73;42.96
76858;BME280;65830;0.000;0.000;2023-08-01T10:01:12;99077.13;;;28.29;42.43
76858;BME280;65830;0.000;0.000;2023-08-01T10:03:38;99070.56;;;28.25;42.94
76858;BME280;65830;0.000;0.000;2023-08-01T10:06:06;99066.47;;;28.27;41.23
76858;BME280;65830;0.000;0.000;2023-08-01T10:08:32;99056.34;;;28.07;43.92
76858;BME280;65830;0.000;0.000;2023-08-01T10:10:58;99052.81;;;28.07;43.84
76858;BME280;65830;0.000;0.000;2023-08-01T10:13:24;99049.78;;;28.08;43.35
76858;BME280;65830;0.000;0.000;2023-08-01T10:15:51;99064.50;;;27.97;43.43
76858;BME280;65830;0.000;0.000;2023-08-01T10:18:18;99057.47;;;28.22;42.30
76858;BME280;65830;0.000;0.000;2023-08-01T10:20:43;99055.00;;;28.15;43.10
76858;BME280;65830;0.000;0.000;2023-08-01T10:23:09;99050.97;;;28.54;42.62
76858;BME280;65830;0.000;0.000;2023-08-01T10:25:36;99040.81;;;28.28;41.52
76858;BME280;65830;0.000;0.000;2023-08-01T10:28:03;99040.81;;;28.23;42.95
76858;BME280;65830;0.000;0.000;2023-08-01T10:30:29;99033.75;;;28.43;42.84
76858;BME280;65830;0.000;0.000;2023-08-01T10:32:55;99031.81;;;28.28;40.28
76858;BME280;65830;0.000;0.000;2023-08-01T10:35:31;99035.09;;;28.20;41.97
76858;BME280;65830;0.000;0.000;2023-08-01T10:38:02;99030.72;;;28.13;43.23
76858;BME280;65830;0.000;0.000;2023-08-01T10:41:02;99023.91;;;28.11;43.76
76858;BME280;65830;0.000;0.000;2023-08-01T10:43:23;99012.75;;;28.23;40.39
76858;BME280;65830;0.000;0.000;2023-08-01T10:46:02;99008.09;;;28.23;40.92
76858;BME280;65830;0.000;0.000;2023-08-01T10:48:27;99006.19;;;28.34;41.62
76858;BME280;65830;0.000;0.000;2023-08-01T10:50:56;99007.34;;;28.59;40.67
76858;BME280;65830;0.000;0.000;2023-08-01T10:53:22;98995.28;;;28.44;42.16
76858;BME280;65830;0.000;0.000;2023-08-01T10:55:48;98992.03;;;28.68;40.24
76858;BME280;65830;0.000;0.000;2023-08-01T10:58:14;98998.00;;;28.85;40.56
76858;BME280;65830;0.000;0.000;2023-08-01T11:00:41;98992.56;;;28.85;39.55
76858;BME280;65830;0.000;0.000;2023-08-01T11:03:06;98985.72;;;28.98;41.35
76858;BME280;65830;0.000;0.000;2023-08-01T11:05:32;98979.16;;;28.99;39.90
76858;BME280;65830;0.000;0.000;2023-08-01T11:08:01;98984.31;;;29.11;40.21
76858;BME280;65830;0.000;0.000;2023-08-01T11:10:27;98975.59;;;28.99;41.49
76858;BME280;65830;0.000;0.000;2023-08-01T11:12:53;98976.16;;;28.90;39.22
76858;BME280;65830;0.000;0.000;2023-08-01T11:15:19;98970.44;;;28.92;40.87
76858;BME280;65830;0.000;0.000;2023-08-01T11:17:52;98964.63;;;29.19;40.57
76858;BME280;65830;0.000;0.000;2023-08-01T11:20:19;98963.56;;;29.10;40.69
76858;BME280;65830;0.000;0.000;2023-08-01T11:22:56;98956.50;;;28.94;42.71
76858;BME280;65830;0.000;0.000;2023-08-01T11:25:35;98951.88;;;28.94;42.11
76858;BME280;65830;0.000;0.000;2023-08-01T11:28:01;98939.50;;;29.17;39.97
76858;BME280;65830;0.000;0.000;2023-08-01T11:30:31;98945.94;;;29.47;40.02
76858;BME280;65830;0.000;0.000;2023-08-01T11:32:57;98932.81;;;29.54;39.26
76858;BME280;65830;0.000;0.000;2023-08-01T11:35:23;98928.91;;;29.65;38.06
76858;BME280;65830;0.000;0.000;2023-08-01T11:37:49;98928.94;;;29.55;39.16
76858;BME280;65830;0.000;0.000;2023-08-01T11:40:15;98927.81;;;29.61;38.44
76858;BME280;65830;0.000;0.000;2023-08-01T11:42:40;98927.25;;;29.69;37.45
76858;BME280;65830;0.000;0.000;2023-08-01T11:45:10;98922.88;;;29.68;40.05
76858;BME280;65830;0.000;0.000;2023-08-01T11:47:35;98922.28;;;29.82;37.68
76858;BME280;65830;0.000;0.000;2023-08-01T11:50:01;98923.38;;;29.81;39.35
76858;BME280;65830;0.000;0.000;2023-08-01T11:52:27;98908.78;;;29.96;38.38
76858;BME280;65830;0.000;0.000;2023-08-01T11:54:53;98910.44;;;30.26;36.36
76858;BME280;65830;0.000;0.000;2023-08-01T11:57:22;98905.97;;;30.40;38.32
76858;BME280;65830;0.000;0.000;2023-08-01T11:59:49;98911.25;;;30.61;37.31
76858;BME280;65830;0.000;0.000;2023-08-01T12:02:25;98914.28;;;30.83;36.78
76858;BME280;65830;0.000;0.000;2023-08-01T12:04:51;98905.53;;;31.11;37.20
76858;BME280;65830;0.000;0.000;2023-08-01T12:07:16;98906.81;;;31.37;36.17
76858;BME280;65830;0.000;0.000;2023-08-01T12:09:42;98895.50;;;31.44;36.34
76858;BME280;65830;0.000;0.000;2023-08-01T12:12:08;98899.44;;;31.57;36.08
76858;BME280;65830;0.000;0.000;2023-08-01T12:14:33;98897.97;;;31.83;36.02
76858;BME280;65830;0.000;0.000;2023-08-01T12:16:59;98889.56;;;32.13;35.79
76858;BME280;65830;0.000;0.000;2023-08-01T12:19:24;98890.47;;;32.41;34.92
76858;BME280;65830;0.000;0.000;2023-08-01T12:21:50;98897.06;;;32.54;34.66
76858;BME280;65830;0.000;0.000;2023-08-01T12:24:15;98893.47;;;32.86;32.65
76858;BME280;65830;0.000;0.000;2023-08-01T12:26:41;98893.56;;;33.09;33.93
76858;BME280;65830;0.000;0.000;2023-08-01T12:29:06;98888.63;;;33.11;33.36
76858;BME280;65830;0.000;0.000;2023-08-01T12:31:32;98883.19;;;33.19;33.31
76858;BME280;65830;0.000;0.000;2023-08-01T12:33:58;98871.28;;;33.24;33.20
76858;BME280;65830;0.000;0.000;2023-08-01T12:36:23;98877.19;;;33.17;33.53
76858;BME280;65830;0.000;0.000;2023-08-01T12:38:49;98874.22;;;33.00;33.25
76858;BME280;65830;0.000;0.000;2023-08-01T12:41:15;98865.28;;;33.22;32.66
76858;BME280;65830;0.000;0.000;2023-08-01T12:43:40;98873.44;;;33.50;32.84
76858;BME280;65830;0.000;0.000;2023-08-01T12:46:06;98867.03;;;33.54;32.75
76858;BME280;65830;0.000;0.000;2023-08-01T12:48:31;98864.72;;;33.84;30.77
76858;BME280;65830;0.000;0.000;2023-08-01T12:50:57;98864.59;;;34.12;33.21
76858;BME280;65830;0.000;0.000;2023-08-01T12:53:22;98855.69;;;34.37;30.39
76858;BME280;65830;0.000;0.000;2023-08-01T12:55:51;98859.28;;;34.47;28.61
76858;BME280;65830;0.000;0.000;2023-08-01T12:58:17;98854.09;;;34.45;31.58
76858;BME280;65830;0.000;0.000;2023-08-01T13:00:43;98842.91;;;34.41;29.85
76858;BME280;65830;0.000;0.000;2023-08-01T13:03:09;98845.47;;;34.69;29.25
76858;BME280;65830;0.000;0.000;2023-08-01T13:05:38;98844.19;;;34.75;30.27